Dallas, TX

10:02 PM CDT on August 31, 2016 (GMT -0500)
MAYOR'S WAY | | Change Station

Elev 492 ft 32.80 °N, 96.81 °W | Updated 5 minutes ago

Scattered Clouds
Scattered Clouds
88.9 °F
Feels Like 95 °F
N
4.7
Wind Variable Wind from East

Today
High -- | Low -- °F
--% Chance of Precip.
Yesterday
High -- | Low -- °F
Precip. -- in
Pressure 29.94 in
Visibility 10.0 miles
Clouds Few 6000 ft
Scattered Clouds 10000 ft
Scattered Clouds 25000 ft
Heat Index 95 °F
Dew Point 71 °F
Humidity 55%
Rainfall 0.00 in
Snow Depth Not available.
7:01 AM 7:52 PM
Waning Crescent, 0% visible
METAR KDAL 010253Z 08004KT 10SM FEW060 SCT100 SCT250 30/22 A2996 RMK AO2 SLP137 MDT CU NE-E W T03000217 53019
Pressure 29.94 in
Visibility 10.0 miles
Clouds Few 6000 ft
Scattered Clouds 10000 ft
Scattered Clouds 25000 ft
Heat Index 95 °F
Dew Point 71 °F
Humidity 55%
Rainfall 0.00 in
Snow Depth Not available.
7:01 AM 7:52 PM
Waning Crescent, 0% visible
METAR KDAL 010253Z 08004KT 10SM FEW060 SCT100 SCT250 30/22 A2996 RMK AO2 SLP137 MDT CU NE-E W T03000217 53019

10-Day Weather Forecast

Almanac

Astronomy

Aug. 31, 2016 Rise Set
Actual Time
Civil Twilight
Nautical Twilight
Astronomical Twilight
Moon
Length of Visible Light
Length of Day
Tomorrow will be .
, % of the Moon is Illuminated

Today's Extremes

State Highs State Lows

Community

WunderPhotos

Upload Photos

1,936,291 photos uploaded!

WunderBlog® & News

Nearby

Air Quality

  Air Quality AQ Index Pollutant
Not available.

Snow Depth

Station Depth Elevation

Earthquake Activity

City Distance Mag. Time & Date
Minimum magnitude displayed is 2.5.

Coastal Water Temperatures

Place Temperature

Stations

Nearby Weather Stations

Station Location Temp. Windchill Dew Point Humidity Wind Precip. Elev Updated Type
                   

Watches & Warnings

There are currently no watches in effect.